Time,TemperatureF,DewpointF,PressureIn,WindDirection,WindDirectionDegrees,WindSpeedMPH,WindSpeedGustMPH,Humidity,HourlyPrecipIn,Conditions,Clouds,dailyrainin,SoftwareType,DateUTC
2013-06-24 00:02:00,68.0,64.0,-100.00,SE,140,4.0,5.0,87,0.00,,,-99.99,,2013-06-24 05:02:00,
2013-06-24 00:12:00,68.0,64.0,-100.00,SSE,160,5.0,6.0,87,0.00,,,-99.99,,2013-06-24 05:12:00,
2013-06-24 00:22:00,67.0,64.0,-100.00,SSE,165,4.0,6.0,88,0.00,,,-99.99,,2013-06-24 05:22:00,
2013-06-24 00:35:00,67.0,64.0,-100.00,SSE,165,2.0,4.0,89,0.00,,,-99.99,,2013-06-24 05:35:00,
2013-06-24 00:53:00,67.0,64.0,-100.00,SSW,210,2.0,3.0,89,0.00,,,-99.99,,2013-06-24 05:53:00,
2013-06-24 01:05:00,67.0,64.0,-100.00,SW,220,1.0,2.0,89,0.00,,,-99.99,,2013-06-24 06:05:00,
2013-06-24 01:13:00,67.0,64.0,-100.00,West,280,1.0,1.0,89,0.00,,,-99.99,,2013-06-24 06:13:00,
2013-06-24 01:43:00,66.0,63.0,-100.00,ESE,115,2.0,3.0,90,0.00,,,-99.99,,2013-06-24 06:43:00,
2013-06-24 01:52:00,66.0,64.0,-100.00,East,90,1.0,2.0,91,0.00,,,-99.99,,2013-06-24 06:52:00,
2013-06-24 02:03:00,66.0,63.0,-100.00,East,100,0.0,1.0,91,0.00,,,-99.99,,2013-06-24 07:03:00,
2013-06-24 02:13:00,66.0,63.0,-100.00,ESE,120,1.0,2.0,91,0.00,,,-99.99,,2013-06-24 07:13:00,
2013-06-24 02:27:00,66.0,63.0,-100.00,East,80,1.0,1.0,91,0.00,,,-99.99,,2013-06-24 07:27:00,
2013-06-24 02:46:00,66.0,63.0,-100.00,North,0,0.0,1.0,91,0.00,,,-99.99,,2013-06-24 07:46:00,
2013-06-24 03:03:00,66.0,63.0,-100.00,NNE,20,2.0,3.0,91,0.00,,,-99.99,,2013-06-24 08:03:00,
2013-06-24 03:13:00,65.0,63.0,-100.00,NE,35,2.0,3.0,91,0.00,,,-99.99,,2013-06-24 08:13:00,
2013-06-24 03:25:00,65.0,63.0,-100.00,NE,50,2.0,2.0,91,0.00,,,-99.99,,2013-06-24 08:25:00,
2013-06-24 03:34:00,65.0,62.0,-100.00,ENE,60,2.0,3.0,91,0.00,,,-99.99,,2013-06-24 08:34:00,
2013-06-24 03:45:00,65.0,63.0,-100.00,ENE,65,2.0,4.0,91,0.00,,,-99.99,,2013-06-24 08:45:00,
2013-06-24 03:52:00,65.0,62.0,-100.00,ESE,110,2.0,3.0,91,0.00,,,-99.99,,2013-06-24 08:52:00,
2013-06-24 04:05:00,65.0,63.0,-100.00,ENE,75,3.0,4.0,91,0.00,,,-99.99,,2013-06-24 09:05:00,
2013-06-24 04:14:00,66.0,63.0,-100.00,ENE,75,3.0,4.0,91,0.00,,,-99.99,,2013-06-24 09:14:00,
2013-06-24 04:25:00,66.0,63.0,-100.00,ENE,60,2.0,4.0,91,0.00,,,-99.99,,2013-06-24 09:25:00,
2013-06-24 04:36:00,66.0,63.0,-100.00,ENE,65,2.0,4.0,91,0.00,,,-99.99,,2013-06-24 09:36:00,
2013-06-24 04:45:00,66.0,64.0,-100.00,NNE,25,2.0,4.0,91,0.00,,,-99.99,,2013-06-24 09:45:00,
2013-06-24 04:55:00,66.0,64.0,-100.00,East,85,2.0,3.0,91,0.00,,,-99.99,,2013-06-24 09:55:00,
2013-06-24 05:03:00,66.0,63.0,-100.00,North,350,0.0,2.0,91,0.00,,,-99.99,,2013-06-24 10:03:00,
2013-06-24 05:13:00,66.0,64.0,-100.00,NE,40,2.0,3.0,91,0.00,,,-99.99,,2013-06-24 10:13:00,
2013-06-24 05:23:00,66.0,64.0,-100.00,NNE,15,0.0,3.0,91,0.00,,,-99.99,,2013-06-24 10:23:00,
2013-06-24 05:36:00,66.0,64.0,-100.00,ENE,75,1.0,2.0,91,0.00,,,-99.99,,2013-06-24 10:36:00,
2013-06-24 05:54:00,67.0,64.0,-100.00,NE,45,0.0,2.0,91,0.00,,,-99.99,,2013-06-24 10:54:00,
2013-06-24 06:02:00,66.0,64.0,-100.00,North,355,1.0,1.0,91,0.00,,,-99.99,,2013-06-24 11:02:00,
2013-06-24 06:14:00,66.0,64.0,-100.00,NNW,330,0.0,1.0,91,0.00,,,-99.99,,2013-06-24 11:14:00,
2013-06-24 06:27:00,67.0,64.0,-100.00,ENE,60,2.0,3.0,91,0.00,,,-99.99,,2013-06-24 11:27:00,
2013-06-24 06:34:00,67.0,64.0,-100.00,North,350,1.0,4.0,91,0.00,,,-99.99,,2013-06-24 11:34:00,
2013-06-24 06:44:00,67.0,65.0,-100.00,NE,45,2.0,4.0,91,0.00,,,-99.99,,2013-06-24 11:44:00,
2013-06-24 07:04:00,67.0,65.0,-100.00,NE,40,2.0,4.0,91,0.00,,,-99.99,,2013-06-24 12:04:00,
2013-06-24 07:15:00,68.0,65.0,-100.00,NNE,30,4.0,6.0,91,0.00,,,-99.99,,2013-06-24 12:15:00,
2013-06-24 07:23:00,68.0,66.0,-100.00,ENE,65,5.0,6.0,91,0.00,,,-99.99,,2013-06-24 12:23:00,
2013-06-24 07:36:00,69.0,67.0,-100.00,ENE,65,5.0,7.0,91,0.00,,,-99.99,,2013-06-24 12:36:00,
2013-06-24 07:46:00,70.0,67.0,-100.00,ENE,75,4.0,7.0,91,0.00,,,-99.99,,2013-06-24 12:46:00,
2013-06-24 07:53:00,70.0,68.0,-100.00,ENE,60,5.0,7.0,91,0.00,,,-99.99,,2013-06-24 12:53:00,
2013-06-24 08:22:00,72.0,69.0,-100.00,ENE,65,3.0,4.0,91,0.00,,,-99.99,,2013-06-24 13:22:00,
2013-06-24 08:54:00,73.0,70.0,-100.00,SE,135,6.0,6.0,91,0.00,,,-99.99,,2013-06-24 13:54:00,
2013-06-24 09:02:00,73.0,70.0,-100.00,ESE,110,1.0,6.0,91,0.00,,,-99.99,,2013-06-24 14:02:00,
2013-06-24 09:14:00,72.0,70.0,-100.00,ESE,105,3.0,4.0,91,0.00,,,-99.99,,2013-06-24 14:14:00,
2013-06-24 09:22:00,72.0,69.0,-100.00,SE,140,4.0,6.0,91,0.00,,,-99.99,,2013-06-24 14:22:00,
2013-06-24 09:36:00,72.0,69.0,-100.00,SSE,150,6.0,7.0,91,0.00,,,-99.99,,2013-06-24 14:36:00,
2013-06-24 09:44:00,72.0,69.0,-100.00,SSE,160,5.0,7.0,91,0.00,,,-99.99,,2013-06-24 14:44:00,
2013-06-24 09:55:00,72.0,69.0,-100.00,SSE,160,5.0,7.0,91,0.00,,,-99.99,,2013-06-24 14:55:00,
2013-06-24 10:04:00,71.0,69.0,-100.00,WSW,240,15.0,22.0,90,0.03,,,-99.99,,2013-06-24 15:04:00,
2013-06-24 10:12:00,69.0,64.0,-100.00,WSW,250,21.0,35.0,83,0.04,,,-99.99,,2013-06-24 15:12:00,
2013-06-24 10:26:00,69.0,62.0,-100.00,WNW,285,27.0,34.0,78,0.07,,,-99.99,,2013-06-24 15:26:00,
2013-06-24 11:34:00,67.0,62.0,-100.00,NE,40,2.0,6.0,82,0.01,,,-99.99,,2013-06-24 16:34:00,
2013-06-24 11:43:00,68.0,63.0,-100.00,NE,55,5.0,7.0,83,0.00,,,-99.99,,2013-06-24 16:43:00,
2013-06-24 11:55:00,68.0,63.0,-100.00,ENE,65,6.0,7.0,85,0.00,,,-99.99,,2013-06-24 16:55:00,
2013-06-24 12:05:00,69.0,64.0,-100.00,SE,125,7.0,10.0,84,0.00,,,-99.99,,2013-06-24 17:05:00,
2013-06-24 12:13:00,69.0,63.0,-100.00,SE,140,17.0,22.0,82,0.00,,,-99.99,,2013-06-24 17:13:00,
2013-06-24 12:24:00,69.0,63.0,-100.00,SE,130,17.0,22.0,80,0.00,,,-99.99,,2013-06-24 17:24:00,
2013-06-24 12:34:00,69.0,63.0,-100.00,ESE,110,10.0,17.0,80,0.00,,,-99.99,,2013-06-24 17:34:00,
2013-06-24 12:44:00,70.0,63.0,-100.00,ESE,105,6.0,17.0,79,0.00,,,-99.99,,2013-06-24 17:44:00,
2013-06-24 12:55:00,70.0,63.0,-100.00,SE,145,12.0,19.0,77,0.00,,,-99.99,,2013-06-24 17:55:00,
2013-06-24 13:02:00,70.0,63.0,-100.00,SE,130,10.0,18.0,77,0.00,,,-99.99,,2013-06-24 18:02:00,
2013-06-24 13:14:00,69.0,63.0,-100.00,SSE,150,10.0,14.0,80,0.00,,,-99.99,,2013-06-24 18:14:00,
2013-06-24 13:23:00,69.0,63.0,-100.00,SE,130,9.0,14.0,81,0.00,,,-99.99,,2013-06-24 18:23:00,
2013-06-24 13:34:00,69.0,63.0,-100.00,SE,130,9.0,13.0,82,0.00,,,-99.99,,2013-06-24 18:34:00,
2013-06-24 13:45:00,68.0,63.0,-100.00,East,85,10.0,16.0,83,0.00,,,-99.99,,2013-06-24 18:45:00,
2013-06-24 13:53:00,68.0,63.0,-100.00,NE,55,4.0,11.0,83,0.00,,,-99.99,,2013-06-24 18:53:00,
2013-06-24 14:06:00,68.0,63.0,-100.00,WNW,295,11.0,14.0,83,0.00,,,-99.99,,2013-06-24 19:06:00,
2013-06-24 14:13:00,69.0,64.0,-100.00,NNW,330,4.0,9.0,83,0.00,,,-99.99,,2013-06-24 19:13:00,
2013-06-24 14:24:00,70.0,64.0,-100.00,ENE,60,2.0,5.0,81,0.00,,,-99.99,,2013-06-24 19:24:00,
2013-06-24 14:36:00,71.0,65.0,-100.00,South,175,6.0,6.0,79,0.00,,,-99.99,,2013-06-24 19:36:00,
2013-06-24 14:54:00,74.0,65.0,-100.00,South,185,8.0,11.0,74,0.00,,,-99.99,,2013-06-24 19:54:00,
2013-06-24 15:04:00,75.0,64.0,-100.00,SE,145,7.0,9.0,68,0.00,,,-99.99,,2013-06-24 20:04:00,
2013-06-24 15:12:00,75.0,64.0,-100.00,SE,145,7.0,9.0,68,0.00,,,-99.99,,2013-06-24 20:12:00,
2013-06-24 15:23:00,76.0,64.0,-100.00,SSE,155,14.0,18.0,67,0.00,,,-99.99,,2013-06-24 20:23:00,
2013-06-24 15:34:00,77.0,65.0,-100.00,SE,140,13.0,19.0,67,0.00,,,-99.99,,2013-06-24 20:34:00,
2013-06-24 15:44:00,78.0,66.0,-100.00,SSE,150,17.0,21.0,67,0.00,,,-99.99,,2013-06-24 20:44:00,
2013-06-24 15:55:00,78.0,66.0,-100.00,South,170,16.0,24.0,67,0.00,,,-99.99,,2013-06-24 20:55:00,
2013-06-24 16:03:00,79.0,67.0,-100.00,South,175,13.0,18.0,67,0.00,,,-99.99,,2013-06-24 21:03:00,
2013-06-24 16:12:00,79.0,67.0,-100.00,SSE,160,15.0,20.0,65,0.00,,,-99.99,,2013-06-24 21:12:00,
2013-06-24 16:24:00,80.0,67.0,-100.00,SSW,195,9.0,15.0,65,0.00,,,-99.99,,2013-06-24 21:24:00,
2013-06-24 16:45:00,81.0,65.0,-100.00,SSE,160,15.0,19.0,57,0.00,,,-99.99,,2013-06-24 21:45:00,
2013-06-24 16:53:00,78.0,62.0,-100.00,SE,140,17.0,21.0,57,0.00,,,-99.99,,2013-06-24 21:53:00,
2013-06-24 17:04:00,76.0,62.0,-100.00,SE,125,13.0,21.0,61,0.00,,,-99.99,,2013-06-24 22:04:00,
2013-06-24 17:13:00,75.0,62.0,-100.00,SE,125,9.0,17.0,65,0.00,,,-99.99,,2013-06-24 22:13:00,
2013-06-24 17:23:00,74.0,62.0,-100.00,ESE,115,7.0,14.0,67,0.00,,,-99.99,,2013-06-24 22:23:00,
2013-06-24 17:35:00,74.0,62.0,-100.00,East,100,6.0,13.0,67,0.00,,,-99.99,,2013-06-24 22:35:00,
2013-06-24 17:46:00,74.0,62.0,-100.00,SE,130,6.0,11.0,67,0.00,,,-99.99,,2013-06-24 22:46:00,
2013-06-24 18:05:00,74.0,64.0,-100.00,SE,135,4.0,10.0,70,0.00,,,-99.99,,2013-06-24 23:05:00,
2013-06-24 18:24:00,74.0,65.0,-100.00,SE,125,15.0,19.0,74,0.00,,,-99.99,,2013-06-24 23:24:00,
2013-06-24 18:34:00,73.0,66.0,-100.00,SE,135,11.0,17.0,76,0.00,,,-99.99,,2013-06-24 23:34:00,
2013-06-24 18:44:00,73.0,66.0,-100.00,SE,135,12.0,16.0,78,0.00,,,-99.99,,2013-06-24 23:44:00,
2013-06-24 18:53:00,73.0,66.0,-100.00,SE,125,11.0,16.0,78,0.00,,,-99.99,,2013-06-24 23:53:00,
2013-06-24 19:12:00,73.0,66.0,-100.00,SE,140,11.0,15.0,78,0.00,,,-99.99,,2013-06-25 00:12:00,
2013-06-24 19:22:00,73.0,66.0,-100.00,SE,130,7.0,14.0,78,0.00,,,-99.99,,2013-06-25 00:22:00,
2013-06-24 19:34:00,74.0,67.0,-100.00,SE,140,9.0,12.0,78,0.00,,,-99.99,,2013-06-25 00:34:00,
2013-06-24 19:45:00,74.0,66.0,-100.00,SE,135,11.0,14.0,76,0.00,,,-99.99,,2013-06-25 00:45:00,
2013-06-24 19:54:00,74.0,66.0,-100.00,SE,145,11.0,16.0,75,0.00,,,-99.99,,2013-06-25 00:54:00,
2013-06-24 20:03:00,74.0,66.0,-100.00,SE,140,12.0,15.0,75,0.00,,,-99.99,,2013-06-25 01:03:00,
2013-06-24 20:14:00,73.0,66.0,-100.00,SE,135,9.0,14.0,76,0.00,,,-99.99,,2013-06-25 01:14:00,
2013-06-24 20:23:00,73.0,66.0,-100.00,SE,135,7.0,12.0,78,0.00,,,-99.99,,2013-06-25 01:23:00,
2013-06-24 20:35:00,73.0,66.0,-100.00,SE,140,9.0,11.0,79,0.00,,,-99.99,,2013-06-25 01:35:00,
2013-06-24 20:44:00,73.0,67.0,-100.00,SSE,150,9.0,12.0,80,0.00,,,-99.99,,2013-06-25 01:44:00,
2013-06-24 20:54:00,72.0,67.0,-100.00,SE,135,7.0,12.0,82,0.00,,,-99.99,,2013-06-25 01:54:00,
2013-06-24 21:04:00,72.0,67.0,-100.00,SE,135,7.0,10.0,83,0.00,,,-99.99,,2013-06-25 02:04:00,
2013-06-24 21:14:00,71.0,67.0,-100.00,SE,140,7.0,9.0,84,0.00,,,-99.99,,2013-06-25 02:14:00,
2013-06-24 21:24:00,71.0,66.0,-100.00,SE,145,6.0,9.0,85,0.00,,,-99.99,,2013-06-25 02:24:00,
2013-06-24 21:35:00,71.0,67.0,-100.00,SE,145,6.0,8.0,87,0.00,,,-99.99,,2013-06-25 02:35:00,
2013-06-24 21:43:00,70.0,66.0,-100.00,SE,145,6.0,7.0,87,0.00,,,-99.99,,2013-06-25 02:43:00,
2013-06-24 22:04:00,69.0,66.0,-100.00,SSE,165,6.0,9.0,88,0.00,,,-99.99,,2013-06-25 03:04:00,
2013-06-24 22:13:00,69.0,66.0,-100.00,SSE,155,5.0,9.0,88,0.00,,,-99.99,,2013-06-25 03:13:00,
2013-06-24 22:56:00,69.0,66.0,-100.00,SE,145,7.0,9.0,87,0.00,,,-99.99,,2013-06-25 03:56:00,
2013-06-24 23:02:00,70.0,66.0,-100.00,SSE,160,9.0,11.0,87,0.00,,,-99.99,,2013-06-25 04:02:00,
2013-06-24 23:11:00,70.0,66.0,-100.00,SSE,155,9.0,13.0,87,0.00,,,-99.99,,2013-06-25 04:11:00,
2013-06-24 23:22:00,70.0,66.0,-100.00,SSE,150,8.0,10.0,87,0.00,,,-99.99,,2013-06-25 04:22:00,
2013-06-24 23:34:00,71.0,66.0,-100.00,SE,145,7.0,10.0,86,0.00,,,-99.99,,2013-06-25 04:34:00,
2013-06-24 23:42:00,71.0,67.0,-100.00,SE,140,7.0,11.0,86,0.00,,,-99.99,,2013-06-25 04:42:00,
2013-06-24 23:52:00,71.0,67.0,-100.00,SE,135,8.0,10.0,86,0.00,,,-99.99,,2013-06-25 04:52:00,